createdAt,value
2017-05-03T00:00:33.308Z,0
2017-05-03T00:01:44.509Z,0
2017-05-03T00:02:55.509Z,0
2017-05-03T00:04:06.511Z,0
2017-05-03T00:05:17.509Z,0
2017-05-03T00:06:28.704Z,0
2017-05-03T00:07:39.693Z,0
2017-05-03T00:08:50.887Z,0
2017-05-03T00:10:01.879Z,0
2017-05-03T00:11:12.881Z,0
2017-05-03T00:12:23.919Z,0
2017-05-03T00:13:34.922Z,0
2017-05-03T00:14:45.921Z,0
2017-05-03T00:15:56.969Z,0
2017-05-03T00:17:07.962Z,0
2017-05-03T00:18:18.954Z,0
2017-05-03T00:19:29.954Z,0
2017-05-03T00:20:41.144Z,0
2017-05-03T00:21:52.135Z,0
2017-05-03T00:23:03.133Z,0
2017-05-03T00:24:14.131Z,0
2017-05-03T00:25:25.123Z,0
2017-05-03T00:26:36.167Z,0
2017-05-03T00:27:47.167Z,0
2017-05-03T00:28:58.368Z,0
2017-05-03T00:30:09.367Z,0
2017-05-03T00:31:20.399Z,0
2017-05-03T00:32:31.395Z,0
2017-05-03T00:33:42.398Z,0
2017-05-03T00:34:53.395Z,0
2017-05-03T00:36:04.389Z,0
2017-05-03T00:37:15.431Z,0
2017-05-03T00:38:26.428Z,0
2017-05-03T00:39:37.621Z,0
2017-05-03T00:40:48.622Z,0
2017-05-03T00:41:59.620Z,0
2017-05-03T00:43:10.618Z,0
2017-05-03T00:44:21.850Z,0
2017-05-03T00:45:32.863Z,0
2017-05-03T00:46:43.867Z,0
2017-05-03T00:47:54.916Z,0
2017-05-03T00:49:05.916Z,0
2017-05-03T00:50:16.914Z,0
2017-05-03T00:51:27.915Z,0
2017-05-03T00:52:39.171Z,0
2017-05-03T00:53:50.172Z,0
2017-05-03T00:55:01.381Z,0
2017-05-03T00:56:12.385Z,0
2017-05-03T00:57:23.371Z,0
2017-05-03T00:58:34.417Z,0
2017-05-03T00:59:45.454Z,0
2017-05-03T01:00:56.446Z,0
2017-05-03T01:02:07.474Z,0
2017-05-03T01:03:18.704Z,0
2017-05-03T01:04:29.795Z,0
2017-05-03T01:05:40.836Z,0
2017-05-03T01:06:51.870Z,0
2017-05-03T01:08:02.915Z,0
2017-05-03T01:09:14.167Z,0
2017-05-03T01:10:25.194Z,0
2017-05-03T01:11:36.229Z,0
2017-05-03T01:12:47.273Z,0
2017-05-03T01:13:58.348Z,0
2017-05-03T01:15:09.382Z,0
2017-05-03T01:16:20.619Z,0
2017-05-03T01:17:31.652Z,0
2017-05-03T01:18:42.695Z,0
2017-05-03T01:19:53.733Z,0
2017-05-03T01:21:04.816Z,0
2017-05-03T01:22:15.846Z,0
2017-05-03T01:23:26.864Z,0
2017-05-03T01:24:38.097Z,0
2017-05-03T01:25:49.136Z,0
2017-05-03T01:27:00.365Z,0
2017-05-03T01:28:11.637Z,0
2017-05-03T01:29:22.678Z,0
2017-05-03T01:30:33.921Z,0
2017-05-03T01:31:45.016Z,0
2017-05-03T01:32:56.051Z,0
2017-05-03T01:34:07.094Z,0
2017-05-03T01:35:18.122Z,0
2017-05-03T01:36:29.572Z,0
2017-05-03T01:37:40.620Z,0
2017-05-03T01:38:51.866Z,0
2017-05-03T01:40:02.904Z,0
2017-05-03T01:41:13.940Z,0
2017-05-03T01:42:25.033Z,0
2017-05-03T01:43:36.069Z,0
2017-05-03T01:44:47.106Z,0
2017-05-03T01:45:58.146Z,0
2017-05-03T01:47:09.168Z,0
2017-05-03T01:48:20.203Z,0
2017-05-03T01:49:31.248Z,0
2017-05-03T01:50:42.292Z,0
2017-05-03T01:51:53.530Z,0
2017-05-03T01:53:04.611Z,0
2017-05-03T01:54:15.658Z,0
2017-05-03T01:55:26.890Z,0
2017-05-03T01:56:38.127Z,0
2017-05-03T01:57:49.163Z,0
2017-05-03T01:59:00.198Z,0
2017-05-03T02:00:11.228Z,0
2017-05-03T02:01:22.255Z,0
2017-05-03T02:02:33.291Z,0
2017-05-03T02:03:44.385Z,0
2017-05-03T02:04:55.418Z,0
2017-05-03T02:06:06.457Z,0
2017-05-03T02:07:17.491Z,0
2017-05-03T02:08:28.727Z,0
2017-05-03T02:09:39.817Z,0
2017-05-03T02:10:50.844Z,0
2017-05-03T02:12:01.882Z,0
2017-05-03T02:13:12.934Z,0
2017-05-03T02:14:24.372Z,0
2017-05-03T02:15:35.410Z,0
2017-05-03T02:16:46.653Z,0
2017-05-03T02:17:57.693Z,0
2017-05-03T02:19:09.132Z,0
2017-05-03T02:20:20.369Z,0
2017-05-03T02:21:31.405Z,0
2017-05-03T02:22:42.439Z,0
2017-05-03T02:23:53.466Z,0
2017-05-03T02:25:04.504Z,0
2017-05-03T02:26:15.541Z,0
2017-05-03T02:27:26.772Z,0
2017-05-03T02:28:37.817Z,0
2017-05-03T02:29:48.869Z,0
2017-05-03T02:30:59.951Z,0
2017-05-03T02:32:10.967Z,0
2017-05-03T02:33:21.999Z,0
2017-05-03T02:34:33.041Z,0
2017-05-03T02:35:44.269Z,0
2017-05-03T02:36:55.308Z,0
2017-05-03T02:38:06.344Z,0
2017-05-03T02:39:17.769Z,0
2017-05-03T02:40:28.793Z,0
2017-05-03T02:41:39.876Z,0
2017-05-03T02:42:50.923Z,0
2017-05-03T02:44:02.163Z,0
2017-05-03T02:45:13.205Z,0
2017-05-03T02:46:24.247Z,0
2017-05-03T02:47:35.893Z,0
2017-05-03T02:48:46.924Z,0
2017-05-03T02:49:57.972Z,0
2017-05-03T02:51:09.008Z,0
2017-05-03T02:52:20.091Z,0
2017-05-03T02:53:31.116Z,0
2017-05-03T02:54:42.154Z,0
2017-05-03T02:55:53.192Z,0
2017-05-03T02:57:04.224Z,0
2017-05-03T02:58:15.260Z,0
2017-05-03T02:59:26.496Z,0
2017-05-03T03:00:37.735Z,0
2017-05-03T03:01:48.768Z,0
2017-05-03T03:03:00.045Z,0
2017-05-03T03:04:11.080Z,0
2017-05-03T03:05:22.111Z,0
2017-05-03T03:06:33.137Z,0
2017-05-03T03:07:44.167Z,0
2017-05-03T03:08:55.245Z,0
2017-05-03T03:10:06.293Z,0
2017-05-03T03:11:17.346Z,0
2017-05-03T03:12:28.389Z,0
2017-05-03T03:13:39.429Z,0
2017-05-03T03:14:50.669Z,0
2017-05-03T03:16:01.703Z,0
2017-05-03T03:17:12.928Z,0
2017-05-03T03:18:23.959Z,0
2017-05-03T03:19:35.339Z,0
2017-05-03T03:20:46.374Z,0
2017-05-03T03:21:57.402Z,0
2017-05-03T03:23:08.446Z,0
2017-05-03T03:24:19.479Z,0
2017-05-03T03:25:30.568Z,0
2017-05-03T03:26:41.593Z,0
2017-05-03T03:27:52.830Z,0
2017-05-03T03:29:03.864Z,0
2017-05-03T03:30:14.895Z,0
2017-05-03T03:31:25.925Z,0
2017-05-03T03:32:36.962Z,0
2017-05-03T03:33:48.034Z,0
2017-05-03T03:34:59.073Z,0
2017-05-03T03:36:10.149Z,0
2017-05-03T03:37:21.184Z,0
2017-05-03T03:38:32.223Z,0
2017-05-03T03:39:43.257Z,0
2017-05-03T03:40:54.296Z,0
2017-05-03T03:42:05.368Z,0
2017-05-03T03:43:16.643Z,0
2017-05-03T03:44:27.691Z,0
2017-05-03T03:45:38.725Z,0
2017-05-03T03:46:50.000Z,0
2017-05-03T03:48:01.241Z,0
2017-05-03T03:49:12.287Z,0
2017-05-03T03:50:23.507Z,0
2017-05-03T03:51:34.540Z,0
2017-05-03T03:52:45.583Z,0
2017-05-03T03:53:56.610Z,0
2017-05-03T03:55:07.636Z,0
2017-05-03T03:56:18.673Z,5
2017-05-03T03:57:29.746Z,5
2017-05-03T03:58:40.984Z,5
2017-05-03T03:59:52.022Z,5
2017-05-03T04:01:03.060Z,5
2017-05-03T04:02:14.095Z,5
2017-05-03T04:03:25.135Z,5
2017-05-03T04:04:36.164Z,5
2017-05-03T04:05:47.205Z,5
2017-05-03T04:06:58.225Z,5
2017-05-03T04:08:09.301Z,5
2017-05-03T04:09:20.539Z,5
2017-05-03T04:10:31.609Z,10
2017-05-03T04:11:42.880Z,10
2017-05-03T04:12:53.926Z,10
2017-05-03T04:14:05.010Z,10
2017-05-03T04:15:16.041Z,10
2017-05-03T04:16:27.069Z,15
2017-05-03T04:17:38.103Z,15
2017-05-03T04:18:49.142Z,15
2017-05-03T04:20:00.219Z,15
2017-05-03T04:21:11.252Z,20
2017-05-03T04:22:22.691Z,15
2017-05-03T04:23:33.725Z,15
2017-05-03T04:24:44.958Z,15
2017-05-03T04:25:55.996Z,15
2017-05-03T04:27:07.040Z,15
2017-05-03T04:28:18.084Z,15
2017-05-03T04:29:29.137Z,15
2017-05-03T04:30:40.215Z,15
2017-05-03T04:31:51.443Z,15
2017-05-03T04:33:02.482Z,15
2017-05-03T04:34:13.527Z,15
2017-05-03T04:35:24.967Z,15
2017-05-03T04:36:35.995Z,20
2017-05-03T04:37:47.025Z,20
2017-05-03T04:38:58.271Z,20
2017-05-03T04:40:09.505Z,20
2017-05-03T04:41:20.591Z,15
2017-05-03T04:42:31.618Z,15
2017-05-03T04:43:42.654Z,15
2017-05-03T04:44:53.694Z,15
2017-05-03T04:46:04.732Z,15
2017-05-03T04:47:15.764Z,10
2017-05-03T04:48:26.797Z,10
2017-05-03T04:49:38.026Z,10
2017-05-03T04:50:49.052Z,10
2017-05-03T04:52:00.541Z,10
2017-05-03T04:53:11.583Z,10
2017-05-03T04:54:22.811Z,10
2017-05-03T04:55:34.045Z,10
2017-05-03T04:56:45.285Z,15
2017-05-03T04:57:56.532Z,15
2017-05-03T04:59:07.772Z,15
2017-05-03T05:00:18.812Z,15
2017-05-03T05:01:30.043Z,15
2017-05-03T05:02:41.131Z,15
2017-05-03T05:03:52.165Z,15
2017-05-03T05:05:03.425Z,15
2017-05-03T05:06:14.521Z,15
2017-05-03T05:07:25.571Z,15
2017-05-03T05:08:36.603Z,15
2017-05-03T05:09:47.646Z,15
2017-05-03T05:10:58.871Z,15
2017-05-03T05:12:09.904Z,10
2017-05-03T05:13:20.988Z,10
2017-05-03T05:14:32.011Z,15
2017-05-03T05:15:43.053Z,15
2017-05-03T05:16:54.079Z,15
2017-05-03T05:18:05.129Z,20
2017-05-03T05:19:16.214Z,20
2017-05-03T05:20:27.254Z,20
2017-05-03T05:21:38.287Z,25
2017-05-03T05:22:49.515Z,30
2017-05-03T05:24:00.593Z,35
2017-05-03T05:25:11.622Z,35
2017-05-03T05:26:22.662Z,35
2017-05-03T05:27:33.692Z,35
2017-05-03T05:28:44.717Z,35
2017-05-03T05:29:55.757Z,35
2017-05-03T05:31:06.788Z,35
2017-05-03T05:32:17.831Z,40
2017-05-03T05:33:28.872Z,40
2017-05-03T05:34:39.886Z,40
2017-05-03T05:35:50.905Z,45
2017-05-03T05:37:01.944Z,50
2017-05-03T05:38:12.984Z,60
2017-05-03T05:39:24.006Z,65
2017-05-03T05:40:35.491Z,75
2017-05-03T05:41:46.521Z,80
2017-05-03T05:42:57.561Z,85
2017-05-03T05:44:08.811Z,95
2017-05-03T05:45:19.847Z,100
2017-05-03T05:46:31.079Z,105
2017-05-03T05:47:42.123Z,110
2017-05-03T05:48:53.150Z,110
2017-05-03T05:50:04.176Z,115
2017-05-03T05:51:15.443Z,120
2017-05-03T05:52:26.472Z,130
2017-05-03T05:53:37.512Z,130
2017-05-03T05:54:48.549Z,140
2017-05-03T05:55:59.775Z,140
2017-05-03T05:57:11.009Z,135
2017-05-03T05:58:22.442Z,115
2017-05-03T05:59:33.884Z,110
2017-05-03T06:00:44.918Z,105
2017-05-03T06:01:56.007Z,105
2017-05-03T06:03:07.043Z,100
2017-05-03T06:04:18.067Z,100
2017-05-03T06:05:29.100Z,95
2017-05-03T06:06:40.129Z,100
2017-05-03T06:07:51.165Z,100
2017-05-03T06:09:02.194Z,100
2017-05-03T06:10:13.434Z,105
2017-05-03T06:11:24.464Z,105
2017-05-03T06:12:35.543Z,105
2017-05-03T06:13:46.585Z,120
2017-05-03T06:14:57.621Z,115
2017-05-03T06:16:08.702Z,125
2017-05-03T06:17:19.936Z,130
2017-05-03T06:18:31.016Z,140
2017-05-03T06:19:42.247Z,140
2017-05-03T06:20:53.275Z,145
2017-05-03T06:22:04.311Z,145
2017-05-03T06:23:15.368Z,150
2017-05-03T06:24:26.406Z,155
2017-05-03T06:25:37.642Z,165
2017-05-03T06:26:48.674Z,185
2017-05-03T06:27:59.707Z,205
2017-05-03T06:29:10.743Z,215
2017-05-03T06:30:21.782Z,220
2017-05-03T06:31:33.021Z,230
2017-05-03T06:32:44.074Z,250
2017-05-03T06:33:55.117Z,260
2017-05-03T06:35:06.196Z,255
2017-05-03T06:36:17.217Z,275
2017-05-03T06:37:28.448Z,280
2017-05-03T06:38:39.476Z,265
2017-05-03T06:39:50.516Z,245
2017-05-03T06:41:01.555Z,225
2017-05-03T06:42:12.590Z,200
2017-05-03T06:43:23.629Z,185
2017-05-03T06:44:34.665Z,190
2017-05-03T06:45:45.746Z,195
2017-05-03T06:46:56.786Z,200
2017-05-03T06:48:07.827Z,205
2017-05-03T06:49:18.867Z,225
2017-05-03T06:50:29.894Z,245
2017-05-03T06:51:40.927Z,230
2017-05-03T06:52:51.979Z,220
2017-05-03T06:54:03.014Z,235
2017-05-03T06:55:14.042Z,225
2017-05-03T06:56:25.127Z,255
2017-05-03T06:57:36.638Z,215
2017-05-03T06:58:47.668Z,190
2017-05-03T06:59:58.703Z,195
2017-05-03T07:01:09.746Z,185
2017-05-03T07:02:20.984Z,165
2017-05-03T07:03:32.014Z,165
2017-05-03T07:04:43.040Z,165
2017-05-03T07:05:54.076Z,165
2017-05-03T07:07:05.162Z,180
2017-05-03T07:08:16.195Z,150
2017-05-03T07:09:27.226Z,135
2017-05-03T07:10:38.256Z,145
2017-05-03T07:11:49.290Z,145
2017-05-03T07:13:00.323Z,140
2017-05-03T07:14:11.357Z,165
2017-05-03T07:15:22.401Z,190
2017-05-03T07:16:33.440Z,220
2017-05-03T07:17:44.525Z,235
2017-05-03T07:18:55.566Z,320
2017-05-03T07:20:06.601Z,520
2017-05-03T07:21:17.643Z,760
2017-05-03T07:22:28.677Z,755
2017-05-03T07:23:39.754Z,835
2017-05-03T07:24:50.812Z,700
2017-05-03T07:26:02.261Z,875
2017-05-03T07:27:13.489Z,1150
2017-05-03T07:28:24.556Z,705
2017-05-03T07:29:35.586Z,750
2017-05-03T07:30:46.625Z,495
2017-05-03T07:31:57.660Z,510
2017-05-03T07:33:08.719Z,515
2017-05-03T07:34:19.961Z,725
2017-05-03T07:35:31.198Z,615
2017-05-03T07:36:42.429Z,675
2017-05-03T07:37:53.450Z,650
2017-05-03T07:39:04.489Z,800
2017-05-03T07:40:15.581Z,470
2017-05-03T07:41:26.617Z,400
2017-05-03T07:42:37.847Z,480
2017-05-03T07:43:48.892Z,430
2017-05-03T07:45:00.133Z,385
2017-05-03T07:46:11.162Z,315
2017-05-03T07:47:22.194Z,300
2017-05-03T07:48:33.226Z,345
2017-05-03T07:49:44.263Z,340
2017-05-03T07:50:55.354Z,360
2017-05-03T07:52:06.393Z,385
2017-05-03T07:53:17.436Z,455
2017-05-03T07:54:28.463Z,745
2017-05-03T07:55:39.486Z,620
2017-05-03T07:56:50.726Z,875
2017-05-03T07:58:01.765Z,1455
2017-05-03T07:59:12.802Z,1330
2017-05-03T08:00:23.844Z,1405
2017-05-03T08:01:34.930Z,1195
2017-05-03T08:02:45.961Z,1180
2017-05-03T08:03:56.997Z,1540
2017-05-03T08:05:08.042Z,760
2017-05-03T08:06:19.087Z,515
2017-05-03T08:07:30.130Z,375
2017-05-03T08:08:41.163Z,410
2017-05-03T08:09:52.814Z,360
2017-05-03T08:11:03.857Z,390
2017-05-03T08:12:15.184Z,380
2017-05-03T08:13:26.434Z,380
2017-05-03T08:14:37.672Z,470
2017-05-03T08:15:48.722Z,650
2017-05-03T08:16:59.769Z,755
2017-05-03T08:18:10.807Z,850
2017-05-03T08:19:21.850Z,770
2017-05-03T08:20:32.888Z,750
2017-05-03T08:21:44.124Z,625
2017-05-03T08:22:55.403Z,605
2017-05-03T08:24:06.439Z,755
2017-05-03T08:25:17.466Z,855
2017-05-03T08:26:28.504Z,955
2017-05-03T08:27:39.541Z,1915
2017-05-03T08:28:50.843Z,1875
2017-05-03T08:30:01.885Z,905
2017-05-03T08:31:12.956Z,1140
2017-05-03T08:32:24.192Z,1100
2017-05-03T08:33:35.237Z,2285
2017-05-03T08:34:46.279Z,655
2017-05-03T08:35:57.522Z,740
2017-05-03T08:37:08.565Z,2265
2017-05-03T08:38:19.638Z,1615
2017-05-03T08:39:30.717Z,870
2017-05-03T08:40:41.747Z,1035
2017-05-03T08:41:52.793Z,2255
2017-05-03T08:43:03.834Z,675
2017-05-03T08:44:14.875Z,715
2017-05-03T08:45:25.911Z,895
2017-05-03T08:46:36.950Z,855
2017-05-03T08:47:47.983Z,1760
2017-05-03T08:48:59.019Z,1000
2017-05-03T08:50:10.110Z,1505
2017-05-03T08:51:21.152Z,1160
2017-05-03T08:52:32.387Z,1435
2017-05-03T08:53:43.453Z,1620
2017-05-03T08:54:54.499Z,2550
2017-05-03T08:56:05.541Z,1995
2017-05-03T08:57:16.993Z,2635
2017-05-03T08:58:28.225Z,2575
2017-05-03T08:59:39.470Z,2300
2017-05-03T09:00:50.579Z,1360
2017-05-03T09:02:01.611Z,2855
2017-05-03T09:03:12.662Z,2580
2017-05-03T09:04:23.713Z,2695
2017-05-03T09:05:34.959Z,2665
2017-05-03T09:06:46.005Z,2725
2017-05-03T09:07:57.041Z,2580
2017-05-03T09:09:08.280Z,2565
2017-05-03T09:10:19.330Z,2625
2017-05-03T09:11:30.432Z,2715
2017-05-03T09:12:41.476Z,1000
2017-05-03T09:13:52.726Z,935
2017-05-03T09:15:03.779Z,2255
2017-05-03T09:16:15.039Z,2745
2017-05-03T09:17:26.119Z,1475
2017-05-03T09:18:37.373Z,2670
2017-05-03T09:19:48.425Z,930
2017-05-03T09:20:59.872Z,670
2017-05-03T09:22:11.006Z,735
2017-05-03T09:23:22.251Z,625
2017-05-03T09:24:33.304Z,630
2017-05-03T09:25:44.346Z,655
2017-05-03T09:26:55.384Z,735
2017-05-03T09:28:06.439Z,810
2017-05-03T09:29:17.478Z,790
2017-05-03T09:30:28.520Z,875
2017-05-03T09:31:39.963Z,1855
2017-05-03T09:32:51.057Z,2745
2017-05-03T09:34:02.096Z,2695
2017-05-03T09:35:13.343Z,2220
2017-05-03T09:36:24.377Z,2485
2017-05-03T09:37:35.429Z,1230
2017-05-03T09:38:46.508Z,860
2017-05-03T09:39:57.561Z,925
2017-05-03T09:41:08.808Z,2250
2017-05-03T09:42:20.054Z,2600
2017-05-03T09:43:31.102Z,1915
2017-05-03T09:44:42.156Z,2405
2017-05-03T09:45:53.204Z,2560
2017-05-03T09:47:04.264Z,2620
2017-05-03T09:48:15.317Z,1980
2017-05-03T09:49:26.414Z,2395
2017-05-03T09:50:37.502Z,2295
2017-05-03T09:51:48.555Z,650
2017-05-03T09:52:59.608Z,640
2017-05-03T09:54:10.658Z,615
2017-05-03T09:55:21.686Z,650
2017-05-03T09:56:32.940Z,790
2017-05-03T09:57:44.192Z,2365
2017-05-03T09:58:55.235Z,780
2017-05-03T10:00:06.331Z,575
2017-05-03T10:01:17.583Z,625
2017-05-03T10:02:28.622Z,625
2017-05-03T10:03:39.665Z,685
2017-05-03T10:04:50.714Z,900
2017-05-03T10:06:01.761Z,950
2017-05-03T10:07:12.818Z,870
2017-05-03T10:08:24.075Z,1490
2017-05-03T10:09:35.112Z,1865
2017-05-03T10:10:46.202Z,2290
2017-05-03T10:11:57.446Z,2140
2017-05-03T10:13:08.501Z,820
2017-05-03T10:14:19.546Z,775
2017-05-03T10:15:30.793Z,1005
2017-05-03T10:16:42.043Z,1945
2017-05-03T10:17:53.099Z,1055
2017-05-03T10:19:04.138Z,745
2017-05-03T10:20:15.191Z,700
2017-05-03T10:21:26.283Z,740
2017-05-03T10:22:37.349Z,835
2017-05-03T10:23:48.426Z,845
2017-05-03T10:24:59.483Z,860
2017-05-03T10:26:10.523Z,780
2017-05-03T10:27:21.762Z,755
2017-05-03T10:28:32.799Z,775
2017-05-03T10:29:44.056Z,865
2017-05-03T10:30:55.291Z,1925
2017-05-03T10:32:06.587Z,1345
2017-05-03T10:33:17.639Z,1815
2017-05-03T10:34:28.682Z,1745
2017-05-03T10:35:39.928Z,1810
2017-05-03T10:36:50.973Z,1735
2017-05-03T10:38:02.267Z,1585
2017-05-03T10:39:13.303Z,1390
2017-05-03T10:40:24.744Z,1320
2017-05-03T10:41:35.788Z,1335
2017-05-03T10:42:47.045Z,1325
2017-05-03T10:43:58.089Z,1310
2017-05-03T10:45:09.125Z,1285
2017-05-03T10:46:20.165Z,1160
2017-05-03T10:47:31.205Z,945
2017-05-03T10:48:42.296Z,1075
2017-05-03T10:49:53.339Z,875
2017-05-03T10:51:04.373Z,960
2017-05-03T10:52:15.409Z,900
2017-05-03T10:53:26.448Z,850
2017-05-03T10:54:37.482Z,935
2017-05-03T10:55:48.527Z,830
2017-05-03T10:56:59.569Z,805
2017-05-03T10:58:10.804Z,825
2017-05-03T10:59:21.893Z,905
2017-05-03T11:00:32.952Z,845
2017-05-03T11:01:44.200Z,865
2017-05-03T11:02:55.446Z,865
2017-05-03T11:04:06.488Z,875
2017-05-03T11:05:17.531Z,910
2017-05-03T11:06:28.574Z,945
2017-05-03T11:07:39.603Z,980
2017-05-03T11:08:50.840Z,1010
2017-05-03T11:10:01.930Z,1075
2017-05-03T11:11:12.961Z,1115
2017-05-03T11:12:23.993Z,1170
2017-05-03T11:13:35.234Z,1120
2017-05-03T11:14:46.493Z,1130
2017-05-03T11:15:57.533Z,1245
2017-05-03T11:17:08.774Z,1200
2017-05-03T11:18:19.815Z,1115
2017-05-03T11:19:30.847Z,805
2017-05-03T11:20:41.935Z,1215
2017-05-03T11:21:52.979Z,1235
2017-05-03T11:23:04.425Z,1270
2017-05-03T11:24:15.461Z,1195
2017-05-03T11:25:26.505Z,745
2017-05-03T11:26:37.549Z,805
2017-05-03T11:27:48.594Z,1140
2017-05-03T11:28:59.836Z,1280
2017-05-03T11:30:10.871Z,1310
2017-05-03T11:31:22.175Z,1305
2017-05-03T11:32:33.220Z,1160
2017-05-03T11:33:44.268Z,1150
2017-05-03T11:34:55.330Z,1225
2017-05-03T11:36:06.374Z,1220
2017-05-03T11:37:17.466Z,1200
2017-05-03T11:38:28.507Z,1205
2017-05-03T11:39:39.562Z,1130
2017-05-03T11:40:50.612Z,1030
2017-05-03T11:42:01.660Z,1010
2017-05-03T11:43:12.912Z,975
2017-05-03T11:44:23.959Z,920
2017-05-03T11:45:35.409Z,890
2017-05-03T11:46:46.449Z,665
2017-05-03T11:47:57.490Z,770
2017-05-03T11:49:08.525Z,630
2017-05-03T11:50:19.562Z,750
2017-05-03T11:51:30.610Z,1070
2017-05-03T11:52:41.646Z,1120
2017-05-03T11:53:52.729Z,1200
2017-05-03T11:55:03.765Z,1245
2017-05-03T11:56:14.806Z,885
2017-05-03T11:57:26.039Z,820
2017-05-03T11:58:37.088Z,915
2017-05-03T11:59:48.136Z,685
2017-05-03T12:00:59.177Z,1250
2017-05-03T12:02:10.228Z,1275
2017-05-03T12:03:21.462Z,1235
2017-05-03T12:04:32.551Z,1270
2017-05-03T12:05:43.585Z,1185
2017-05-03T12:06:54.619Z,1145
2017-05-03T12:08:05.667Z,1175
2017-05-03T12:09:16.714Z,1195
2017-05-03T12:10:27.807Z,1145
2017-05-03T12:11:38.850Z,710
2017-05-03T12:12:49.899Z,1115
2017-05-03T12:14:01.146Z,1060
2017-05-03T12:15:12.260Z,1130
2017-05-03T12:16:23.303Z,1070
2017-05-03T12:17:34.558Z,1100
2017-05-03T12:18:45.600Z,1045
2017-05-03T12:19:56.645Z,1060
2017-05-03T12:21:07.895Z,945
2017-05-03T12:22:19.141Z,915
2017-05-03T12:23:30.179Z,805
2017-05-03T12:24:41.218Z,605
2017-05-03T12:25:52.521Z,645
2017-05-03T12:27:03.771Z,925
2017-05-03T12:28:14.804Z,925
2017-05-03T12:29:25.845Z,890
2017-05-03T12:30:36.889Z,865
2017-05-03T12:31:47.983Z,795
2017-05-03T12:32:59.018Z,660
2017-05-03T12:34:10.064Z,505
2017-05-03T12:35:21.504Z,505
2017-05-03T12:36:32.806Z,620
2017-05-03T12:37:43.844Z,570
2017-05-03T12:38:55.084Z,565
2017-05-03T12:40:06.123Z,585
2017-05-03T12:41:17.146Z,655
2017-05-03T12:42:28.637Z,715
2017-05-03T12:43:39.670Z,740
2017-05-03T12:44:50.910Z,675
2017-05-03T12:46:01.942Z,675
2017-05-03T12:47:12.987Z,655
2017-05-03T12:48:24.033Z,605
2017-05-03T12:49:35.068Z,615
2017-05-03T12:50:46.304Z,690
2017-05-03T12:51:57.341Z,745
2017-05-03T12:53:08.423Z,850
2017-05-03T12:54:19.467Z,720
2017-05-03T12:55:30.517Z,580
2017-05-03T12:56:41.557Z,560
2017-05-03T12:57:52.599Z,490
2017-05-03T12:59:03.633Z,440
2017-05-03T13:00:14.687Z,420
2017-05-03T13:01:25.723Z,425
2017-05-03T13:02:36.780Z,435
2017-05-03T13:03:47.932Z,450
2017-05-03T13:04:58.982Z,450
2017-05-03T13:06:10.232Z,450
2017-05-03T13:07:21.275Z,445
2017-05-03T13:08:32.518Z,425
2017-05-03T13:09:43.565Z,415
2017-05-03T13:10:54.587Z,425
2017-05-03T13:12:05.627Z,430
2017-05-03T13:13:16.659Z,445
2017-05-03T13:14:27.750Z,480
2017-05-03T13:15:38.794Z,500
2017-05-03T13:16:49.837Z,510
2017-05-03T13:18:00.915Z,505
2017-05-03T13:19:11.954Z,475
2017-05-03T13:20:23.000Z,445
2017-05-03T13:21:34.036Z,410
2017-05-03T13:22:45.074Z,375
2017-05-03T13:23:56.320Z,355
2017-05-03T13:25:07.616Z,330
2017-05-03T13:26:18.665Z,325
2017-05-03T13:27:29.705Z,330
2017-05-03T13:28:40.746Z,325
2017-05-03T13:29:51.793Z,330
2017-05-03T13:31:02.837Z,345
2017-05-03T13:32:13.882Z,360
2017-05-03T13:33:24.927Z,375
2017-05-03T13:34:35.964Z,380
2017-05-03T13:35:47.054Z,380
2017-05-03T13:36:58.102Z,365
2017-05-03T13:38:09.340Z,355
2017-05-03T13:39:20.376Z,350
2017-05-03T13:40:31.417Z,340
2017-05-03T13:41:42.510Z,335
2017-05-03T13:42:53.541Z,335
2017-05-03T13:44:04.569Z,340
2017-05-03T13:45:15.626Z,365
2017-05-03T13:46:26.857Z,395
2017-05-03T13:47:37.902Z,420
2017-05-03T13:48:48.947Z,440
2017-05-03T13:50:00.184Z,440
2017-05-03T13:51:11.224Z,445
2017-05-03T13:52:22.464Z,445
2017-05-03T13:53:33.502Z,440
2017-05-03T13:54:44.748Z,430
2017-05-03T13:55:55.796Z,420
2017-05-03T13:57:06.833Z,410
2017-05-03T13:58:17.868Z,390
2017-05-03T13:59:29.102Z,380
2017-05-03T14:00:40.124Z,360
2017-05-03T14:01:51.369Z,345
2017-05-03T14:03:02.415Z,350
2017-05-03T14:04:13.509Z,370
2017-05-03T14:05:24.558Z,390
2017-05-03T14:06:35.591Z,400
2017-05-03T14:07:46.636Z,400
2017-05-03T14:08:57.679Z,420
2017-05-03T14:10:08.713Z,415
2017-05-03T14:11:19.749Z,420
2017-05-03T14:12:30.787Z,415
2017-05-03T14:13:42.037Z,415
2017-05-03T14:14:53.118Z,410
2017-05-03T14:16:04.159Z,405
2017-05-03T14:17:15.204Z,395
2017-05-03T14:18:26.244Z,380
2017-05-03T14:19:37.298Z,380
2017-05-03T14:20:48.325Z,360
2017-05-03T14:21:59.556Z,350
2017-05-03T14:23:10.591Z,350
2017-05-03T14:24:21.631Z,345
2017-05-03T14:25:32.714Z,345
2017-05-03T14:26:43.749Z,340
2017-05-03T14:27:54.788Z,345
2017-05-03T14:29:05.828Z,345
2017-05-03T14:30:16.867Z,350
2017-05-03T14:31:27.898Z,350
2017-05-03T14:32:38.942Z,355
2017-05-03T14:33:49.987Z,360
2017-05-03T14:35:01.027Z,360
2017-05-03T14:36:12.118Z,355
2017-05-03T14:37:23.390Z,355
2017-05-03T14:38:34.425Z,350
2017-05-03T14:39:45.458Z,345
2017-05-03T14:40:56.498Z,340
2017-05-03T14:42:07.746Z,335
2017-05-03T14:43:18.788Z,335
2017-05-03T14:44:29.822Z,335
2017-05-03T14:45:41.057Z,325
2017-05-03T14:46:52.150Z,325
2017-05-03T14:48:03.189Z,325
2017-05-03T14:49:14.242Z,325
2017-05-03T14:50:25.280Z,315
2017-05-03T14:51:36.320Z,310
2017-05-03T14:52:47.569Z,300
2017-05-03T14:53:58.612Z,300
2017-05-03T14:55:09.649Z,290
2017-05-03T14:56:20.682Z,285
2017-05-03T14:57:31.724Z,285
2017-05-03T14:58:42.752Z,285
2017-05-03T14:59:53.790Z,285
2017-05-03T15:01:04.838Z,290
2017-05-03T15:02:15.875Z,285
2017-05-03T15:03:26.963Z,280
2017-05-03T15:04:37.998Z,280
2017-05-03T15:05:49.029Z,260
2017-05-03T15:07:00.065Z,240
2017-05-03T15:08:11.101Z,225
2017-05-03T15:09:22.161Z,210
2017-05-03T15:10:33.182Z,205
2017-05-03T15:11:44.228Z,205
2017-05-03T15:12:55.267Z,200
2017-05-03T15:14:06.355Z,190
2017-05-03T15:15:17.396Z,175
2017-05-03T15:16:28.435Z,160
2017-05-03T15:17:39.463Z,145
2017-05-03T15:18:50.703Z,130
2017-05-03T15:20:01.749Z,105
2017-05-03T15:21:12.783Z,90
2017-05-03T15:22:23.814Z,75
2017-05-03T15:23:34.842Z,65
2017-05-03T15:24:45.919Z,60
2017-05-03T15:25:56.955Z,55
2017-05-03T15:27:08.207Z,55
2017-05-03T15:28:19.457Z,55
2017-05-03T15:29:30.494Z,55
2017-05-03T15:30:41.522Z,60
2017-05-03T15:31:52.558Z,65
2017-05-03T15:33:03.589Z,75
2017-05-03T15:34:14.618Z,80
2017-05-03T15:35:25.706Z,80
2017-05-03T15:36:36.953Z,80
2017-05-03T15:37:48.201Z,75
2017-05-03T15:38:59.439Z,70
2017-05-03T15:40:10.679Z,65
2017-05-03T15:41:21.935Z,65
2017-05-03T15:42:33.180Z,65
2017-05-03T15:43:44.225Z,70
2017-05-03T15:44:55.261Z,75
2017-05-03T15:46:06.358Z,80
2017-05-03T15:47:17.638Z,80
2017-05-03T15:48:28.886Z,75
2017-05-03T15:49:39.921Z,70
2017-05-03T15:50:50.957Z,70
2017-05-03T15:52:02.238Z,65
2017-05-03T15:53:13.478Z,65
2017-05-03T15:54:24.510Z,65
2017-05-03T15:55:35.549Z,65
2017-05-03T15:56:46.574Z,65
2017-05-03T15:57:57.619Z,60
2017-05-03T15:59:08.659Z,55
2017-05-03T16:00:19.693Z,50
2017-05-03T16:01:30.732Z,45
2017-05-03T16:02:41.773Z,35
2017-05-03T16:03:53.013Z,30
2017-05-03T16:05:04.047Z,25
2017-05-03T16:06:15.075Z,25
2017-05-03T16:07:26.119Z,25
2017-05-03T16:08:37.204Z,25
2017-05-03T16:09:48.241Z,20
2017-05-03T16:10:59.277Z,20
2017-05-03T16:12:10.527Z,20
2017-05-03T16:13:21.570Z,25
2017-05-03T16:14:32.604Z,25
2017-05-03T16:15:43.646Z,30
2017-05-03T16:16:54.871Z,30
2017-05-03T16:18:05.907Z,30
2017-05-03T16:19:17.006Z,30
2017-05-03T16:20:28.229Z,30
2017-05-03T16:21:39.472Z,30
2017-05-03T16:22:50.511Z,35
2017-05-03T16:24:01.941Z,40
2017-05-03T16:25:13.174Z,45
2017-05-03T16:26:24.204Z,50
2017-05-03T16:27:35.242Z,55
2017-05-03T16:28:46.270Z,55
2017-05-03T16:29:57.341Z,55
2017-05-03T16:31:08.364Z,50
2017-05-03T16:32:19.407Z,50
2017-05-03T16:33:30.436Z,50
2017-05-03T16:34:41.471Z,45
2017-05-03T16:35:52.510Z,45
2017-05-03T16:37:03.535Z,40